Time;durP1;ratioP1;P1;durP2;ratioP2;P2;SDS_P1;SDS_P2;PMS_P1;PMS_P2;Temp;Humidity;BMP_temperature;BMP_pressure;BME280_temperature;BME280_humidity;BME280_pressure;Samples;Min_cycle;Max_cycle;Signal;HPM_P1;HPM_P2
2024/01/05 00:01:46;;;;;;;8.45;3.47;;;8.50;99.90;;;;;;6139180;23;20081;-38
2024/01/05 00:04:12;;;;;;;9.80;3.35;;;8.50;99.90;;;;;;6137990;23;20022;-38
2024/01/05 00:06:38;;;;;;;6.63;3.35;;;8.50;99.90;;;;;;6138993;23;20006;-38
2024/01/05 00:09:04;;;;;;;6.97;3.00;;;8.50;99.90;;;;;;6138929;23;20013;-39
2024/01/05 00:11:29;;;;;;;11.15;3.15;;;8.50;99.90;;;;;;6139530;23;20077;-39
2024/01/05 00:13:55;;;;;;;5.32;2.58;;;8.50;99.90;;;;;;6139746;23;20422;-39
2024/01/05 00:16:22;;;;;;;5.82;3.00;;;8.50;99.90;;;;;;6138115;23;20016;-36
2024/01/05 00:18:51;;;;;;;6.90;2.83;;;8.50;99.90;;;;;;6139206;23;20721;-37
2024/01/05 00:21:20;;;;;;;8.27;2.88;;;8.50;99.90;;;;;;6138923;23;20441;-38
2024/01/05 00:23:46;;;;;;;5.72;2.60;;;8.50;99.90;;;;;;6139313;23;20013;-37
2024/01/05 00:26:12;;;;;;;9.60;3.28;;;8.60;99.90;;;;;;6139268;23;20005;-37
2024/01/05 00:28:37;;;;;;;9.30;3.17;;;8.60;99.90;;;;;;6139999;23;20021;-37
2024/01/05 00:31:07;;;;;;;7.03;3.47;;;8.60;99.90;;;;;;6138733;23;20009;-38
2024/01/05 00:33:34;;;;;;;6.20;3.05;;;8.60;99.90;;;;;;6140029;23;20623;-38
2024/01/05 00:36:02;;;;;;;8.93;3.40;;;8.60;99.90;;;;;;6140294;23;20005;-38
2024/01/05 00:38:27;;;;;;;5.22;2.72;;;8.50;99.90;;;;;;6139135;23;20006;-39
2024/01/05 00:40:53;;;;;;;8.45;3.53;;;8.60;99.90;;;;;;6140063;23;20013;-37
2024/01/05 00:43:18;;;;;;;6.38;3.10;;;8.60;99.90;;;;;;6139439;23;20425;-37
2024/01/05 00:45:44;;;;;;;6.28;3.30;;;8.60;99.90;;;;;;6139752;23;20010;-38
2024/01/05 00:48:10;;;;;;;10.75;3.45;;;8.60;99.90;;;;;;6139998;23;20113;-39
2024/01/05 00:50:41;;;;;;;8.90;3.70;;;8.60;99.90;;;;;;6139980;23;20040;-37
2024/01/05 00:53:07;;;;;;;11.73;4.07;;;8.60;99.90;;;;;;6139653;23;20452;-38
2024/01/05 00:55:33;;;;;;;7.40;3.47;;;8.60;99.90;;;;;;6142500;23;20001;-37
2024/01/05 00:57:59;;;;;;;10.05;3.38;;;8.70;99.90;;;;;;6141429;23;20005;-38
2024/01/05 01:00:24;;;;;;;7.93;3.67;;;8.70;99.90;;;;;;6141035;23;20077;-37
2024/01/05 01:02:51;;;;;;;8.70;3.53;;;8.70;99.90;;;;;;6140901;23;20001;-37
2024/01/05 01:05:17;;;;;;;7.25;4.28;;;8.70;99.90;;;;;;6139463;23;20013;-38
2024/01/05 01:07:43;;;;;;;6.25;3.70;;;8.60;99.90;;;;;;6140475;23;20005;-37
2024/01/05 01:10:09;;;;;;;9.30;4.13;;;8.70;99.90;;;;;;6141324;23;20017;-37
2024/01/05 01:12:34;;;;;;;10.93;4.03;;;8.70;99.90;;;;;;6140296;23;20424;-37
2024/01/05 01:15:00;;;;;;;7.10;3.60;;;8.70;99.90;;;;;;6140892;23;20011;-38
2024/01/05 01:17:26;;;;;;;8.68;3.92;;;8.70;99.90;;;;;;6142377;23;20651;-37
2024/01/05 01:19:54;;;;;;;8.27;3.33;;;8.70;99.90;;;;;;6139593;23;20523;-38
2024/01/05 01:22:23;;;;;;;8.70;3.50;;;8.70;99.90;;;;;;6141104;23;20291;-37
2024/01/05 01:24:48;;;;;;;4.82;2.65;;;8.60;99.90;;;;;;6141618;23;20039;-37
2024/01/05 01:27:15;;;;;;;7.43;3.05;;;8.60;99.90;;;;;;6139364;23;20068;-37
2024/01/05 01:29:41;;;;;;;6.72;2.90;;;8.60;99.90;;;;;;6140387;23;20048;-37
2024/01/05 01:32:09;;;;;;;5.68;3.50;;;8.60;99.90;;;;;;6140689;23;20044;-37
2024/01/05 01:34:35;;;;;;;5.85;3.08;;;8.60;99.90;;;;;;6140774;23;20033;-37
2024/01/05 01:37:00;;;;;;;5.78;3.50;;;8.50;99.90;;;;;;6140226;23;20346;-37
2024/01/05 01:39:26;;;;;;;5.35;3.00;;;8.50;99.90;;;;;;6141107;23;20016;-37
2024/01/05 01:41:51;;;;;;;9.73;3.08;;;8.50;99.90;;;;;;6140174;23;20009;-38
2024/01/05 01:44:17;;;;;;;6.10;2.90;;;8.50;99.90;;;;;;6140178;23;20832;-37
2024/01/05 01:46:43;;;;;;;5.82;2.97;;;8.50;99.90;;;;;;6141314;23;20048;-39
2024/01/05 01:49:09;;;;;;;8.30;3.33;;;8.50;99.90;;;;;;6139837;23;20033;-38
2024/01/05 01:51:35;;;;;;;9.82;3.35;;;8.40;99.90;;;;;;6141377;23;20005;-37
2024/01/05 01:54:04;;;;;;;11.27;3.70;;;8.40;99.90;;;;;;6140514;23;20022;-37
2024/01/05 01:56:32;;;;;;;6.50;3.67;;;8.40;99.90;;;;;;6139605;23;20563;-37
2024/01/05 01:58:58;;;;;;;9.13;3.75;;;8.40;99.90;;;;;;6140457;23;20055;-38
2024/01/05 02:01:24;;;;;;;6.75;3.03;;;8.40;99.90;;;;;;6139434;23;20116;-38
2024/01/05 02:03:50;;;;;;;6.68;3.00;;;8.40;99.90;;;;;;6140124;23;20032;-41
2024/01/05 02:06:15;;;;;;;5.13;2.75;;;8.40;99.90;;;;;;6138898;23;20428;-38
2024/01/05 02:08:45;;;;;;;8.55;3.13;;;8.50;99.90;;;;;;6139676;23;20013;-37
2024/01/05 02:11:13;;;;;;;7.07;3.10;;;8.50;99.90;;;;;;6140650;23;20009;-38
2024/01/05 02:13:38;;;;;;;9.85;3.42;;;8.50;99.90;;;;;;6140976;23;20005;-37
2024/01/05 02:16:04;;;;;;;4.03;2.47;;;8.50;99.90;;;;;;6139992;23;20064;-38
2024/01/05 02:18:30;;;;;;;6.63;2.88;;;8.60;99.90;;;;;;6140438;23;20016;-37
2024/01/05 02:21:02;;;;;;;5.25;2.60;;;8.60;99.90;;;;;;6141011;23;20093;-37
2024/01/05 02:23:32;;;;;;;5.13;2.60;;;8.60;99.90;;;;;;6140404;23;20002;-38
2024/01/05 02:25:58;;;;;;;3.85;2.03;;;8.60;99.90;;;;;;6141578;23;20038;-39
2024/01/05 02:28:24;;;;;;;6.85;2.17;;;8.70;99.90;;;;;;6140980;23;20033;-37
2024/01/05 02:30:52;;;;;;;5.93;2.40;;;8.70;99.90;;;;;;6140535;23;20009;-38
2024/01/05 02:33:18;;;;;;;3.28;1.75;;;8.70;99.90;;;;;;6140206;23;20072;-38
2024/01/05 02:35:44;;;;;;;4.78;1.70;;;8.70;99.90;;;;;;6140886;23;20623;-38
2024/01/05 02:38:09;;;;;;;2.53;1.48;;;8.70;99.90;;;;;;6139612;23;20632;-38
2024/01/05 02:40:35;;;;;;;2.72;1.70;;;8.70;99.90;;;;;;6140966;23;20001;-37
2024/01/05 02:43:01;;;;;;;4.30;2.60;;;8.80;99.90;;;;;;6140555;23;20001;-42
2024/01/05 02:45:26;;;;;;;5.25;1.42;;;8.80;99.90;;;;;;6140056;23;20053;-38
2024/01/05 02:47:52;;;;;;;4.38;1.52;;;8.90;99.90;;;;;;6141281;23;20005;-38
2024/01/05 02:50:19;;;;;;;3.25;1.33;;;8.80;99.90;;;;;;6139938;23;20040;-38
2024/01/05 02:52:44;;;;;;;3.30;1.23;;;8.90;99.90;;;;;;6139115;23;20009;-38
2024/01/05 02:55:11;;;;;;;3.58;1.35;;;8.90;99.90;;;;;;6139834;23;20013;-37
2024/01/05 02:57:37;;;;;;;4.88;1.63;;;8.90;99.90;;;;;;6139796;23;20005;-37
2024/01/05 03:00:04;;;;;;;4.70;1.48;;;8.90;99.90;;;;;;6138835;23;20032;-38
2024/01/05 03:02:30;;;;;;;3.78;1.45;;;9.00;99.90;;;;;;6138978;23;20067;-38
2024/01/05 03:04:56;;;;;;;2.47;1.10;;;9.00;99.90;;;;;;6139142;23;20013;-38
2024/01/05 03:07:22;;;;;;;4.28;1.67;;;9.00;99.90;;;;;;6139479;23;20012;-37
2024/01/05 03:09:47;;;;;;;2.97;1.40;;;9.00;99.90;;;;;;6140023;23;20017;-37
2024/01/05 03:12:13;;;;;;;2.70;1.30;;;9.00;99.90;;;;;;6138707;23;20009;-38
2024/01/05 03:14:38;;;;;;;3.13;1.17;;;9.00;99.90;;;;;;6140571;23;20009;-37
2024/01/05 03:17:04;;;;;;;2.33;0.98;;;9.00;99.90;;;;;;6140220;23;20057;-37
2024/01/05 03:19:30;;;;;;;4.55;1.67;;;9.00;99.90;;;;;;6139978;23;20148;-38
2024/01/05 03:21:56;;;;;;;1.80;1.08;;;9.00;99.90;;;;;;6140211;23;20088;-39
2024/01/05 03:24:22;;;;;;;2.13;1.02;;;9.10;99.90;;;;;;6140390;23;20028;-38
2024/01/05 03:26:48;;;;;;;1.83;1.13;;;9.10;99.90;;;;;;6140182;23;20016;-38
2024/01/05 03:29:13;;;;;;;2.80;1.05;;;9.10;99.90;;;;;;6139443;23;20009;-38
2024/01/05 03:31:39;;;;;;;1.63;0.90;;;9.10;99.90;;;;;;6140296;23;20500;-37
2024/01/05 03:34:04;;;;;;;1.48;1.00;;;9.10;99.90;;;;;;6138742;23;20040;-37
2024/01/05 03:36:30;;;;;;;1.52;0.82;;;9.10;99.90;;;;;;6140158;23;20076;-38
2024/01/05 03:38:56;;;;;;;3.72;1.08;;;9.10;99.90;;;;;;6140110;23;20116;-37
2024/01/05 03:41:22;;;;;;;2.95;1.60;;;9.10;99.90;;;;;;6139398;23;20006;-37
2024/01/05 03:43:47;;;;;;;2.25;1.20;;;9.10;99.90;;;;;;6140133;23;20009;-38
2024/01/05 03:46:13;;;;;;;4.90;1.58;;;9.10;99.90;;;;;;6139055;23;20389;-37
2024/01/05 03:48:39;;;;;;;6.70;1.63;;;9.10;99.90;;;;;;6138950;23;20048;-38
2024/01/05 03:51:05;;;;;;;4.80;2.05;;;9.10;99.90;;;;;;6139689;23;20015;-39
2024/01/05 03:53:31;;;;;;;5.80;1.55;;;9.10;99.90;;;;;;6140562;23;20176;-37
2024/01/05 03:56:00;;;;;;;5.43;1.60;;;9.10;99.90;;;;;;6139734;23;20009;-38
2024/01/05 03:58:26;;;;;;;2.85;1.52;;;9.10;99.90;;;;;;6139559;23;20457;-39
2024/01/05 04:00:51;;;;;;;3.42;1.35;;;9.10;99.90;;;;;;6139898;23;20009;-37
2024/01/05 04:03:17;;;;;;;4.63;1.80;;;9.10;99.90;;;;;;6138604;23;20013;-37
2024/01/05 04:05:43;;;;;;;4.53;1.52;;;9.10;99.90;;;;;;6140438;23;20021;-38
2024/01/05 04:08:09;;;;;;;3.25;1.30;;;9.10;99.90;;;;;;6137778;23;20017;-36
2024/01/05 04:10:36;;;;;;;5.30;1.67;;;9.10;99.90;;;;;;6139101;23;20393;-37
2024/01/05 04:13:02;;;;;;;4.30;1.58;;;9.10;99.90;;;;;;6139332;23;20246;-37
2024/01/05 04:15:28;;;;;;;3.90;1.30;;;9.10;99.90;;;;;;6138555;23;20589;-37
2024/01/05 04:17:53;;;;;;;2.83;1.20;;;9.10;99.90;;;;;;6140131;23;20037;-38
2024/01/05 04:20:19;;;;;;;2.83;1.25;;;9.10;99.90;;;;;;6139068;23;20012;-36
2024/01/05 04:22:45;;;;;;;2.65;1.17;;;9.10;99.90;;;;;;6138870;23;20488;-37
2024/01/05 04:25:10;;;;;;;3.55;1.77;;;9.10;99.90;;;;;;6138819;23;20014;-36
2024/01/05 04:27:37;;;;;;;4.95;1.40;;;9.10;99.90;;;;;;6140162;23;20076;-37
2024/01/05 04:30:03;;;;;;;4.15;1.33;;;9.20;99.90;;;;;;6141318;23;20014;-37
2024/01/05 04:32:29;;;;;;;6.30;1.65;;;9.10;99.90;;;;;;6141513;23;20421;-37
2024/01/05 04:34:55;;;;;;;3.50;1.40;;;9.20;99.90;;;;;;6141453;23;20083;-38
2024/01/05 04:37:20;;;;;;;3.17;1.20;;;9.20;99.90;;;;;;6141335;23;20101;-37
2024/01/05 04:39:46;;;;;;;4.93;1.65;;;9.20;99.90;;;;;;6141841;23;20401;-38
2024/01/05 04:42:12;;;;;;;2.17;1.33;;;9.20;99.90;;;;;;6141902;23;20005;-38
2024/01/05 04:44:37;;;;;;;4.82;1.52;;;9.20;99.90;;;;;;6140805;23;20036;-38
2024/01/05 04:47:03;;;;;;;6.15;1.50;;;9.20;99.90;;;;;;6141211;23;20012;-38
2024/01/05 04:49:29;;;;;;;5.75;1.30;;;9.20;99.90;;;;;;6141933;23;20020;-38
2024/01/05 04:51:54;;;;;;;4.22;1.10;;;9.20;99.90;;;;;;6140510;23;20005;-38
2024/01/05 04:54:20;;;;;;;4.00;1.23;;;9.20;99.90;;;;;;6141515;23;20013;-37
2024/01/05 04:56:46;;;;;;;3.13;1.30;;;9.20;99.90;;;;;;6141717;23;20029;-37
2024/01/05 04:59:11;;;;;;;4.50;1.40;;;9.20;99.90;;;;;;6139251;23;20765;-37
2024/01/05 05:01:40;;;;;;;5.68;1.60;;;9.20;99.90;;;;;;6141201;23;19997;-37
2024/01/05 05:04:08;;;;;;;3.60;1.27;;;9.20;99.90;;;;;;6141528;23;20444;-37
2024/01/05 05:06:34;;;;;;;4.20;1.30;;;9.20;99.90;;;;;;6141255;23;20076;-38
2024/01/05 05:08:59;;;;;;;4.20;1.55;;;9.20;99.90;;;;;;6141222;23;20101;-37
2024/01/05 05:11:25;;;;;;;3.13;1.05;;;9.20;99.90;;;;;;6140004;23;20005;-38
2024/01/05 05:13:50;;;;;;;3.67;1.25;;;9.20;99.90;;;;;;6141709;23;20496;-38
2024/01/05 05:16:18;;;;;;;3.50;1.40;;;9.20;99.90;;;;;;6140617;23;20002;-39
2024/01/05 05:18:43;;;;;;;3.10;1.10;;;9.20;99.90;;;;;;6141025;23;20013;-38
2024/01/05 05:21:09;;;;;;;3.25;1.08;;;9.20;99.90;;;;;;6140879;23;20006;-39
2024/01/05 05:23:34;;;;;;;3.38;1.27;;;9.20;99.90;;;;;;6141161;23;20093;-38
2024/01/05 05:26:00;;;;;;;3.22;1.30;;;9.20;99.90;;;;;;6141010;23;20009;-39
2024/01/05 05:28:25;;;;;;;4.57;1.00;;;9.20;99.90;;;;;;6141128;23;20012;-39
2024/01/05 05:30:51;;;;;;;3.65;1.30;;;9.20;99.90;;;;;;6141863;23;20016;-38
2024/01/05 05:33:17;;;;;;;4.25;1.27;;;9.20;99.90;;;;;;6139550;23;20009;-38
2024/01/05 05:35:42;;;;;;;4.40;1.42;;;9.20;99.90;;;;;;6141048;23;20329;-37
2024/01/05 05:38:08;;;;;;;5.03;1.30;;;9.20;99.90;;;;;;6140720;23;20059;-37
2024/01/05 05:40:33;;;;;;;3.75;1.15;;;9.20;99.90;;;;;;6139619;23;20040;-37
2024/01/05 05:42:59;;;;;;;3.40;1.30;;;9.20;99.90;;;;;;6140368;23;20009;-38
2024/01/05 05:45:26;;;;;;;2.80;1.15;;;9.20;99.90;;;;;;6140978;23;20001;-38
2024/01/05 05:47:51;;;;;;;4.72;1.40;;;9.20;99.90;;;;;;6139377;23;20020;-37
2024/01/05 05:50:17;;;;;;;5.47;1.65;;;9.20;99.90;;;;;;6141091;23;20097;-37
2024/01/05 05:52:43;;;;;;;3.33;1.10;;;9.20;99.90;;;;;;6141714;23;20040;-38
2024/01/05 05:55:12;;;;;;;4.70;1.15;;;9.20;99.90;;;;;;6140398;23;20771;-38
2024/01/05 05:57:39;;;;;;;3.97;1.13;;;9.20;99.90;;;;;;6141462;23;20017;-38
2024/01/05 06:00:06;;;;;;;4.32;1.45;;;9.20;99.90;;;;;;6141500;23;20432;-37
2024/01/05 06:02:31;;;;;;;2.10;1.02;;;9.20;99.90;;;;;;6139712;23;20010;-38
2024/01/05 06:04:57;;;;;;;3.45;1.42;;;9.20;99.90;;;;;;6140227;23;20075;-38
2024/01/05 06:07:24;;;;;;;3.60;0.95;;;9.20;99.90;;;;;;6141390;23;20006;-38
2024/01/05 06:09:50;;;;;;;2.03;0.80;;;9.20;99.90;;;;;;6140899;23;20017;-37
2024/01/05 06:12:16;;;;;;;4.13;1.67;;;9.20;99.90;;;;;;6140044;23;20709;-37
2024/01/05 06:14:41;;;;;;;4.35;1.30;;;9.20;99.90;;;;;;6140173;23;20005;-38
2024/01/05 06:17:10;;;;;;;3.78;1.10;;;9.20;99.90;;;;;;6139812;23;20009;-39
2024/01/05 06:19:35;;;;;;;2.78;1.02;;;9.10;99.90;;;;;;6140614;23;20100;-37
2024/01/05 06:22:01;;;;;;;2.78;0.90;;;9.20;99.90;;;;;;6140531;23;20108;-37
2024/01/05 06:24:28;;;;;;;4.47;1.33;;;9.20;99.90;;;;;;6139374;23;20009;-38
2024/01/05 06:26:53;;;;;;;1.83;0.90;;;9.10;99.90;;;;;;6140108;23;20017;-38
2024/01/05 06:29:19;;;;;;;3.50;0.90;;;9.20;99.90;;;;;;6139201;23;20022;-37
2024/01/05 06:31:45;;;;;;;2.90;0.98;;;9.20;99.90;;;;;;6140808;23;20100;-38
2024/01/05 06:34:10;;;;;;;2.85;1.00;;;9.10;99.90;;;;;;6141765;23;20090;-38
2024/01/05 06:36:36;;;;;;;2.25;1.00;;;9.20;99.90;;;;;;6136844;23;20113;-37
2024/01/05 06:39:01;;;;;;;1.98;0.80;;;9.20;99.90;;;;;;6140144;23;20009;-37
2024/01/05 06:41:27;;;;;;;1.55;0.93;;;9.20;99.90;;;;;;6139689;23;20005;-37
2024/01/05 06:43:53;;;;;;;2.35;0.80;;;9.20;99.90;;;;;;6139490;23;20006;-37
2024/01/05 06:46:18;;;;;;;2.95;1.25;;;9.20;99.90;;;;;;6138578;23;20006;-37
2024/01/05 06:48:44;;;;;;;1.55;0.80;;;9.20;99.90;;;;;;6137933;23;20440;-38
2024/01/05 06:51:09;;;;;;;2.30;0.85;;;9.20;99.90;;;;;;6138515;23;20031;-37
2024/01/05 06:53:35;;;;;;;2.90;1.02;;;9.20;99.90;;;;;;6140396;23;20045;-38
2024/01/05 06:56:01;;;;;;;2.22;1.20;;;9.20;99.90;;;;;;6139254;23;20360;-38
2024/01/05 06:58:27;;;;;;;2.50;0.90;;;9.20;99.90;;;;;;6139285;23;20032;-38
2024/01/05 07:00:53;;;;;;;2.58;1.00;;;9.20;99.90;;;;;;6140034;23;20107;-38
2024/01/05 07:03:19;;;;;;;3.45;1.15;;;9.20;99.90;;;;;;6139750;23;20105;-38
2024/01/05 07:05:51;;;;;;;3.47;0.80;;;9.20;99.90;;;;;;6139276;23;20429;-38
2024/01/05 07:08:21;;;;;;;2.80;1.08;;;9.20;99.90;;;;;;6139942;23;20010;-39
2024/01/05 07:10:47;;;;;;;2.90;1.13;;;9.20;99.90;;;;;;6139860;23;20684;-38
2024/01/05 07:13:18;;;;;;;3.47;1.10;;;9.20;99.90;;;;;;6139395;23;20031;-38
2024/01/05 07:15:49;;;;;;;2.50;0.90;;;9.20;99.90;;;;;;6140288;23;20014;-38
2024/01/05 07:18:36;;;;;;;;;;;;;;;;;;;;;
2024/01/05 07:21:03;;;;;;;1.45;0.80;;;9.20;99.90;;;;;;6126841;23;20010;-39
2024/01/05 07:23:29;;;;;;;1.75;0.90;;;9.20;99.90;;;;;;6140109;23;20005;-40
2024/01/05 07:25:55;;;;;;;1.45;0.88;;;9.20;99.90;;;;;;6137980;23;20072;-40
2024/01/05 07:28:20;;;;;;;3.22;0.98;;;9.20;99.90;;;;;;6138576;23;20017;-40
2024/01/05 07:30:46;;;;;;;1.65;0.90;;;9.20;99.90;;;;;;6139631;23;20009;-39
2024/01/05 07:33:12;;;;;;;2.45;1.00;;;9.20;99.90;;;;;;6137039;23;20014;-38
2024/01/05 07:35:38;;;;;;;1.65;0.80;;;9.30;99.90;;;;;;6137578;23;20089;-38
2024/01/05 07:38:04;;;;;;;1.75;0.73;;;9.30;99.90;;;;;;6139652;23;20468;-36
2024/01/05 07:40:30;;;;;;;3.30;1.00;;;9.30;99.90;;;;;;6138417;23;20084;-39
2024/01/05 07:42:56;;;;;;;1.60;0.60;;;9.30;99.90;;;;;;6140017;23;20265;-37
2024/01/05 07:45:21;;;;;;;2.13;0.88;;;9.30;99.90;;;;;;6140035;23;20835;-37
2024/01/05 07:47:47;;;;;;;2.03;0.75;;;9.30;99.90;;;;;;6140051;23;20013;-37
2024/01/05 07:50:14;;;;;;;0.73;0.60;;;9.30;99.90;;;;;;6139847;23;20009;-38
2024/01/05 07:52:40;;;;;;;2.70;0.90;;;9.30;99.90;;;;;;6114951;23;20452;-38
2024/01/05 07:55:07;;;;;;;2.03;0.70;;;9.30;99.90;;;;;;6139661;23;20006;-38
2024/01/05 07:57:33;;;;;;;1.80;0.80;;;9.30;99.90;;;;;;6139685;23;20771;-39
2024/01/05 07:59:59;;;;;;;1.25;0.60;;;9.30;99.90;;;;;;6139971;23;20089;-38
2024/01/05 08:02:24;;;;;;;2.13;1.10;;;9.30;99.90;;;;;;6139128;23;20051;-38
2024/01/05 08:04:50;;;;;;;1.45;0.82;;;9.30;99.90;;;;;;6140285;23;20142;-38
2024/01/05 08:07:17;;;;;;;1.75;0.90;;;9.30;99.90;;;;;;6140023;23;20009;-38
2024/01/05 08:09:43;;;;;;;0.63;0.40;;;9.30;99.90;;;;;;6140828;23;20025;-38
2024/01/05 08:12:09;;;;;;;1.73;0.50;;;9.30;99.90;;;;;;6139399;23;20005;-38
2024/01/05 08:14:36;;;;;;;0.45;0.43;;;9.20;99.90;;;;;;6138268;23;20006;-38
2024/01/05 08:17:03;;;;;;;0.70;0.60;;;9.20;99.90;;;;;;6140255;23;20005;-38
2024/01/05 08:19:28;;;;;;;0.35;0.35;;;9.10;99.90;;;;;;6140001;23;20091;-38
2024/01/05 08:21:54;;;;;;;0.95;0.40;;;9.10;99.90;;;;;;6139431;23;20117;-37
2024/01/05 08:24:22;;;;;;;0.63;0.50;;;9.10;99.90;;;;;;6140655;23;20779;-37
2024/01/05 08:26:48;;;;;;;0.88;0.40;;;9.10;99.90;;;;;;6139534;23;20006;-38
2024/01/05 08:29:14;;;;;;;0.50;0.50;;;9.10;99.90;;;;;;6137341;23;20013;-38
2024/01/05 08:31:40;;;;;;;0.57;0.57;;;9.10;99.90;;;;;;6139225;23;20008;-37
2024/01/05 08:34:06;;;;;;;0.90;0.60;;;9.00;99.90;;;;;;6138460;23;20032;-37
2024/01/05 08:36:32;;;;;;;0.40;0.30;;;9.00;99.90;;;;;;6139447;23;20002;-37
2024/01/05 08:38:58;;;;;;;0.65;0.30;;;9.00;99.90;;;;;;6138508;23;20080;-37
2024/01/05 08:41:24;;;;;;;0.45;0.40;;;9.00;99.90;;;;;;6138370;23;20001;-37
2024/01/05 08:43:49;;;;;;;0.70;0.70;;;9.00;99.90;;;;;;6138289;23;20005;-38
2024/01/05 08:46:15;;;;;;;0.88;0.60;;;9.00;99.90;;;;;;6139533;23;20040;-37
2024/01/05 08:48:44;;;;;;;1.13;0.60;;;9.00;99.90;;;;;;6139955;23;20033;-38
2024/01/05 08:51:10;;;;;;;1.25;0.50;;;8.90;99.90;;;;;;6137745;23;20009;-38
2024/01/05 08:53:35;;;;;;;0.35;0.30;;;8.80;99.90;;;;;;6140428;23;20012;-41
2024/01/05 08:56:01;;;;;;;0.40;0.40;;;8.80;99.90;;;;;;6136682;23;20862;-38
2024/01/05 08:58:27;;;;;;;0.40;0.38;;;8.80;99.90;;;;;;6138746;23;20390;-38
2024/01/05 09:00:52;;;;;;;0.30;0.30;;;8.70;99.90;;;;;;6139958;23;20005;-38
2024/01/05 09:03:18;;;;;;;3.53;0.40;;;8.70;99.90;;;;;;6138257;23;20846;-38
2024/01/05 09:05:45;;;;;;;0.52;0.30;;;8.70;99.90;;;;;;6138445;23;20425;-38
2024/01/05 09:08:10;;;;;;;0.95;0.45;;;8.70;99.90;;;;;;6138512;23;20319;-38
2024/01/05 09:10:39;;;;;;;2.17;0.40;;;8.70;99.90;;;;;;6139052;23;20067;-38
2024/01/05 09:13:04;;;;;;;0.65;0.32;;;8.60;99.90;;;;;;6140162;23;20002;-38
2024/01/05 09:15:30;;;;;;;0.98;0.30;;;8.60;99.90;;;;;;6140899;23;20014;-38
2024/01/05 09:17:56;;;;;;;0.88;0.45;;;8.50;99.90;;;;;;6140511;23;20010;-37
2024/01/05 09:20:22;;;;;;;1.10;0.40;;;8.50;99.90;;;;;;6140828;23;20010;-38
2024/01/05 09:22:48;;;;;;;0.63;0.57;;;8.50;99.90;;;;;;6141193;23;20696;-38
2024/01/05 09:25:14;;;;;;;0.40;0.40;;;8.50;99.90;;;;;;6139404;23;20005;-39
2024/01/05 09:27:39;;;;;;;0.82;0.70;;;8.50;99.90;;;;;;6141687;23;20008;-38
2024/01/05 09:30:06;;;;;;;1.15;0.80;;;8.50;99.90;;;;;;6142292;23;20017;-38
2024/01/05 09:32:32;;;;;;;1.85;0.50;;;8.50;99.90;;;;;;6141831;23;20005;-38
2024/01/05 09:34:57;;;;;;;0.93;0.47;;;8.50;99.90;;;;;;6141741;23;20056;-38
2024/01/05 09:37:23;;;;;;;0.50;0.40;;;8.50;99.90;;;;;;6140907;23;20009;-38
2024/01/05 09:39:48;;;;;;;0.90;0.50;;;8.50;99.90;;;;;;6139566;23;20006;-38
2024/01/05 09:42:14;;;;;;;0.70;0.52;;;8.50;99.90;;;;;;6138248;23;20014;-38
2024/01/05 09:44:41;;;;;;;1.77;0.98;;;8.50;99.90;;;;;;6139937;23;20120;-38
2024/01/05 09:47:07;;;;;;;1.38;1.25;;;8.50;99.90;;;;;;6139523;23;20432;-38
2024/01/05 09:49:39;;;;;;;1.20;0.80;;;8.50;99.90;;;;;;6139587;23;20094;-37
2024/01/05 09:52:06;;;;;;;0.60;0.60;;;8.50;99.90;;;;;;6139064;23;20005;-37
2024/01/05 09:54:31;;;;;;;1.33;0.57;;;8.50;99.90;;;;;;6140234;23;20009;-37
2024/01/05 09:56:58;;;;;;;0.65;0.40;;;8.50;99.90;;;;;;6114544;23;20389;-37
2024/01/05 09:59:26;;;;;;;0.63;0.50;;;8.40;99.90;;;;;;6140872;23;20751;-38
2024/01/05 10:01:53;;;;;;;0.50;0.50;;;8.40;99.90;;;;;;6141122;23;20092;-38
2024/01/05 10:04:19;;;;;;;0.30;0.30;;;8.40;99.90;;;;;;6140509;23;20028;-38
2024/01/05 10:06:45;;;;;;;0.30;0.30;;;8.40;99.90;;;;;;6139962;23;20005;-38
2024/01/05 10:09:11;;;;;;;0.63;0.40;;;8.30;99.90;;;;;;6139912;23;20018;-38
2024/01/05 10:11:45;;;;;;;1.20;0.50;;;8.30;99.90;;;;;;6139874;23;20013;-38
2024/01/05 10:14:14;;;;;;;0.40;0.40;;;8.20;99.90;;;;;;6140681;23;20009;-38
2024/01/05 10:16:40;;;;;;;0.50;0.40;;;8.10;99.90;;;;;;6141140;23;20002;-38
2024/01/05 10:19:24;;;;;;;0.60;0.40;;;8.10;99.90;;;;;;6140593;23;20005;-38
2024/01/05 10:21:50;;;;;;;0.30;0.30;;;8.10;99.90;;;;;;6140418;23;20040;-37
2024/01/05 10:24:27;;;;;;;0.20;0.20;;;8.10;99.90;;;;;;6139572;23;20512;-38
2024/01/05 10:27:06;;;;;;;0.30;0.30;;;8.10;99.90;;;;;;6140148;23;20079;-38
2024/01/05 10:29:37;;;;;;;0.47;0.30;;;8.10;99.90;;;;;;6138656;23;20747;-38
2024/01/05 10:32:16;;;;;;;0.40;0.40;;;8.10;99.90;;;;;;6140938;23;20006;-38
2024/01/05 10:34:49;;;;;;;0.35;0.35;;;8.00;99.90;;;;;;6140814;23;20005;-38
2024/01/05 10:37:16;;;;;;;0.40;0.40;;;8.00;99.90;;;;;;6139214;23;20001;-37
2024/01/05 10:39:51;;;;;;;0.75;0.60;;;8.00;99.90;;;;;;6140680;23;20514;-36
2024/01/05 10:42:21;;;;;;;0.82;0.75;;;8.00;99.90;;;;;;6139217;23;20011;-36
2024/01/05 10:44:52;;;;;;;0.47;0.47;;;8.00;99.90;;;;;;6138924;23;20012;-38
2024/01/05 10:47:19;;;;;;;0.60;0.60;;;8.00;99.90;;;;;;6139370;23;20012;-38
2024/01/05 10:49:49;;;;;;;0.93;0.77;;;8.00;99.90;;;;;;6138936;23;20101;-39
2024/01/05 10:52:30;;;;;;;0.80;0.80;;;8.00;99.90;;;;;;6138540;23;20234;-38
2024/01/05 10:55:02;;;;;;;1.27;0.98;;;8.00;99.90;;;;;;6139124;23;20052;-38
2024/01/05 10:57:31;;;;;;;1.00;0.90;;;7.90;99.90;;;;;;6138280;23;20780;-38
2024/01/05 10:59:57;;;;;;;1.75;0.80;;;8.00;99.90;;;;;;6140221;23;20132;-38
2024/01/05 11:02:47;;;;;;;1.63;0.70;;;8.00;99.90;;;;;;6139925;23;20524;-38
2024/01/05 11:05:13;;;;;;;2.40;0.80;;;8.00;99.90;;;;;;6138350;23;20513;-37
2024/01/05 11:07:48;;;;;;;2.15;0.80;;;8.00;99.90;;;;;;6140635;23;20008;-38
2024/01/05 11:10:40;;;;;;;1.45;0.95;;;8.00;99.90;;;;;;6139179;23;20398;-37
2024/01/05 11:13:51;;;;;;;1.00;0.80;;;8.00;99.90;;;;;;6140346;23;20020;-38
2024/01/05 11:16:45;;;;;;;0.80;0.80;;;8.00;99.90;;;;;;6113684;23;20006;-37
2024/01/05 11:19:27;;;;;;;1.55;0.70;;;8.00;99.90;;;;;;6138566;23;20051;-37
2024/01/05 11:22:30;;;;;;;1.00;0.75;;;8.00;99.90;;;;;;6138643;23;20006;-38
2024/01/05 11:24:57;;;;;;;0.80;0.80;;;8.00;99.90;;;;;;6076684;23;20067;-37
2024/01/05 11:27:33;;;;;;;1.10;0.80;;;8.10;99.90;;;;;;6128497;23;20013;-38
2024/01/05 11:30:00;;;;;;;1.13;0.90;;;8.10;99.90;;;;;;6139219;23;20014;-36
2024/01/05 11:32:55;;;;;;;0.80;0.80;;;8.10;99.90;;;;;;6139406;23;20033;-37
2024/01/05 11:35:24;;;;;;;0.90;0.90;;;8.10;99.90;;;;;;6140309;23;20009;-38
2024/01/05 11:37:50;;;;;;;0.90;0.90;;;8.10;99.90;;;;;;6139719;23;20535;-38
2024/01/05 11:40:31;;;;;;;3.08;1.27;;;8.10;99.90;;;;;;6138271;23;20002;-37
2024/01/05 11:42:58;;;;;;;1.25;1.15;;;8.20;99.90;;;;;;6138963;23;20048;-37
2024/01/05 11:45:44;;;;;;;1.30;1.10;;;8.20;99.90;;;;;;6137334;23;20006;-38
2024/01/05 11:48:30;;;;;;;1.20;1.10;;;8.10;99.90;;;;;;6139463;23;20104;-37
2024/01/05 11:50:57;;;;;;;0.90;0.90;;;8.10;99.90;;;;;;6137423;23;20421;-38
2024/01/05 11:53:24;;;;;;;1.17;1.00;;;8.10;99.90;;;;;;6137957;23;20009;-37
2024/01/05 11:55:51;;;;;;;1.20;1.00;;;8.10;99.90;;;;;;6138120;23;20044;-39
2024/01/05 11:58:22;;;;;;;0.93;0.80;;;8.00;99.90;;;;;;6139074;23;20015;-37
2024/01/05 12:00:49;;;;;;;0.80;0.80;;;8.00;99.90;;;;;;6139493;23;20013;-38
2024/01/05 12:03:15;;;;;;;1.40;1.30;;;8.10;99.90;;;;;;6138564;23;20017;-38
2024/01/05 12:05:42;;;;;;;1.00;1.00;;;8.10;99.90;;;;;;6138880;23;20108;-39
2024/01/05 12:08:11;;;;;;;1.63;1.35;;;8.10;99.90;;;;;;6138174;23;20010;-38
2024/01/05 12:10:39;;;;;;;1.30;1.20;;;8.20;99.90;;;;;;6138813;23;20040;-38
2024/01/05 12:13:05;;;;;;;2.05;1.20;;;8.20;99.90;;;;;;6138889;23;20006;-38
2024/01/05 12:15:31;;;;;;;2.28;1.20;;;8.20;99.90;;;;;;6139934;23;20024;-38
2024/01/05 12:18:08;;;;;;;1.33;1.15;;;8.20;99.90;;;;;;6138972;23;20006;-37
2024/01/05 12:20:34;;;;;;;1.08;0.98;;;8.30;99.90;;;;;;6139325;23;20012;-37
2024/01/05 12:23:03;;;;;;;1.40;1.00;;;8.30;99.90;;;;;;6138360;23;20013;-37
2024/01/05 12:25:30;;;;;;;0.98;0.95;;;8.30;99.90;;;;;;6139681;23;20029;-37
2024/01/05 12:27:56;;;;;;;0.85;0.80;;;8.30;99.90;;;;;;6138041;23;20739;-39
2024/01/05 12:30:23;;;;;;;2.17;0.93;;;8.30;99.90;;;;;;6139030;23;20345;-39
2024/01/05 12:32:49;;;;;;;0.95;0.93;;;8.30;99.90;;;;;;6138875;23;20421;-37
2024/01/05 12:35:15;;;;;;;0.77;0.77;;;8.30;99.90;;;;;;6137893;23;20689;-37
2024/01/05 12:37:54;;;;;;;0.95;0.80;;;8.30;99.90;;;;;;6139736;23;20042;-37
2024/01/05 12:40:25;;;;;;;0.90;0.82;;;8.30;99.90;;;;;;6139233;23;20329;-37
2024/01/05 12:42:52;;;;;;;1.70;0.90;;;8.30;99.90;;;;;;6134922;23;20013;-37
2024/01/05 12:45:22;;;;;;;1.05;0.90;;;8.20;99.90;;;;;;6139741;23;20036;-38
2024/01/05 12:47:54;;;;;;;5.10;3.20;;;8.20;99.90;;;;;;6139329;23;20438;-37
2024/01/05 12:50:23;;;;;;;1.55;1.45;;;8.20;99.90;;;;;;6139171;23;20517;-37
2024/01/05 12:52:49;;;;;;;1.75;1.30;;;8.20;99.90;;;;;;6141574;23;20005;-37
2024/01/05 12:55:29;;;;;;;1.25;1.10;;;8.20;99.90;;;;;;6140689;23;20032;-36
2024/01/05 12:58:04;;;;;;;1.75;1.20;;;8.30;99.90;;;;;;6140833;23;20006;-37
2024/01/05 13:00:32;;;;;;;1.67;1.10;;;8.30;99.90;;;;;;6140631;23;20002;-37